Time;durP1;ratioP1;P1;durP2;ratioP2;P2;SDS_P1;SDS_P2;PMS_P1;PMS_P2;Temp;Humidity;BMP_temperature;BMP_pressure;BME280_temperature;BME280_humidity;BME280_pressure;Samples;Min_cycle;Max_cycle;Signal;HPM_P1;HPM_P2
2021/03/26 00:02:03;;;;;;;51.25;26.80;;;;;;;5.70;100.00;101783.84;6224275;28;20057;-83
2021/03/26 00:05:07;;;;;;;56.15;26.75;;;;;;;5.68;100.00;101784.75;6224042;28;20045;-83
2021/03/26 00:08:08;;;;;;;48.03;25.40;;;;;;;5.63;100.00;101782.22;6224136;28;20042;-83
2021/03/26 00:11:11;;;;;;;52.20;26.10;;;;;;;5.56;100.00;101773.63;6223602;28;20104;-81
2021/03/26 00:14:12;;;;;;;47.72;26.08;;;;;;;5.51;100.00;101778.06;6224115;28;20509;-83
2021/03/26 00:17:14;;;;;;;51.90;27.00;;;;;;;5.48;100.00;101772.91;6223961;28;20050;-84
2021/03/26 00:20:15;;;;;;;50.53;25.33;;;;;;;5.48;100.00;101778.13;6223689;28;20634;-84
2021/03/26 00:23:17;;;;;;;49.88;26.80;;;;;;;5.44;100.00;101778.19;6222848;28;20042;-83
2021/03/26 00:26:18;;;;;;;52.58;25.15;;;;;;;5.42;100.00;101766.94;6223717;28;20077;-83
2021/03/26 00:29:20;;;;;;;49.15;25.38;;;;;;;5.37;100.00;101767.00;6223475;28;20042;-83
2021/03/26 00:32:22;;;;;;;51.08;25.55;;;;;;;5.35;100.00;101771.38;6223165;28;20085;-83
2021/03/26 00:35:25;;;;;;;52.55;27.23;;;;;;;5.30;100.00;101765.38;6223618;28;20052;-83
2021/03/26 00:41:29;;;;;;;50.90;27.13;;;;;;;5.22;100.00;101764.59;6190636;28;20101;-74
2021/03/26 00:44:30;;;;;;;57.83;30.42;;;;;;;5.14;100.00;101764.75;6185270;28;20059;-75
2021/03/26 00:47:32;;;;;;;66.10;30.85;;;;;;;5.10;100.00;101763.06;6174600;28;20051;-75
2021/03/26 00:50:35;;;;;;;65.38;33.15;;;;;;;5.08;100.00;101762.19;6174578;28;20106;-74
2021/03/26 00:53:37;;;;;;;75.03;37.67;;;;;;;5.05;100.00;101757.06;6174290;28;20063;-75
2021/03/26 00:56:40;;;;;;;79.75;38.28;;;;;;;5.03;100.00;101758.81;6174739;28;20062;-74
2021/03/26 00:59:41;;;;;;;69.90;33.38;;;;;;;4.99;100.00;101759.72;6174225;28;20047;-74
2021/03/26 01:02:43;;;;;;;68.63;34.40;;;;;;;4.94;100.00;101759.78;6174151;28;20116;-75
2021/03/26 01:05:46;;;;;;;64.70;31.90;;;;;;;4.93;100.00;101760.69;6174186;28;20464;-74
2021/03/26 01:08:47;;;;;;;66.80;34.15;;;;;;;4.89;100.00;101755.53;6174304;28;20046;-75
2021/03/26 01:11:48;;;;;;;63.25;31.52;;;;;;;4.86;100.00;101763.38;6173807;28;20058;-74
2021/03/26 01:14:49;;;;;;;60.78;31.23;;;;;;;4.82;100.00;101760.84;6174473;28;20457;-75
2021/03/26 01:17:52;;;;;;;68.10;31.92;;;;;;;4.82;100.00;101759.97;6174179;28;20047;-75
2021/03/26 01:20:54;;;;;;;64.85;32.40;;;;;;;4.78;100.00;101756.56;6173679;28;20053;-74
2021/03/26 01:23:56;;;;;;;61.60;32.53;;;;;;;4.79;100.00;101760.00;6174082;28;20047;-75
2021/03/26 01:26:57;;;;;;;64.63;32.65;;;;;;;4.90;100.00;101752.03;6173901;28;20050;-74
2021/03/26 01:29:57;;;;;;;63.00;32.85;;;;;;;4.98;100.00;101748.44;6173838;28;20081;-74
2021/03/26 01:33:00;;;;;;;65.13;32.70;;;;;;;5.13;100.00;101756.94;6172516;28;20065;-75
2021/03/26 01:36:01;;;;;;;66.05;31.92;;;;;;;5.21;100.00;101745.50;6170912;28;20055;-75
2021/03/26 01:39:05;;;;;;;64.28;30.95;;;;;;;5.27;100.00;101745.44;6173389;28;20416;-74
2021/03/26 01:42:23;;;;;;;58.22;30.45;;;;;;;5.26;100.00;101740.22;6173532;28;20113;-74
2021/03/26 01:45:26;;;;;;;67.15;32.25;;;;;;;5.24;100.00;101740.25;6173832;28;20061;-75
2021/03/26 01:48:31;;;;;;;62.80;30.98;;;;;;;5.24;100.00;101737.66;6173715;28;20051;-75
2021/03/26 01:51:35;;;;;;;63.85;31.73;;;;;;;5.25;100.00;101741.13;6173292;28;20054;-75
2021/03/26 01:54:36;;;;;;;65.20;33.08;;;;;;;5.24;100.00;101729.84;6173709;28;20055;-74
2021/03/26 01:57:37;;;;;;;68.40;32.03;;;;;;;5.30;100.00;101734.94;6173498;28;20093;-74
2021/03/26 02:00:41;;;;;;;69.43;34.97;;;;;;;5.34;100.00;101722.72;6173720;28;20057;-74
2021/03/26 02:03:46;;;;;;;68.57;33.40;;;;;;;5.33;100.00;101724.47;6173400;28;20057;-74
2021/03/26 02:06:50;;;;;;;64.97;32.47;;;;;;;5.30;100.00;101724.53;6173573;28;20058;-75
2021/03/26 02:09:51;;;;;;;61.80;31.58;;;;;;;5.29;100.00;101732.38;6173206;28;20463;-75
2021/03/26 02:13:00;;;;;;;63.78;31.55;;;;;;;5.29;100.00;101725.41;6173295;28;20086;-75
2021/03/26 02:16:04;;;;;;;63.17;31.30;;;;;;;5.32;100.00;101724.50;6173370;28;20117;-74
2021/03/26 02:19:09;;;;;;;65.60;31.10;;;;;;;5.23;100.00;101716.84;6173464;28;20139;-75
2021/03/26 02:22:13;;;;;;;62.40;31.23;;;;;;;5.17;100.00;101712.56;6172918;28;20420;-75
2021/03/26 02:25:18;;;;;;;67.35;32.22;;;;;;;5.13;100.00;101710.03;6173340;28;20047;-74
2021/03/26 02:28:19;;;;;;;62.20;32.72;;;;;;;5.09;100.00;101720.53;6173410;28;20415;-75
2021/03/26 02:31:21;;;;;;;58.35;30.52;;;;;;;5.03;100.00;101712.78;6172792;28;20051;-74
2021/03/26 02:34:22;;;;;;;61.65;30.55;;;;;;;4.98;100.00;101713.72;6173149;28;20515;-75
2021/03/26 02:37:23;;;;;;;63.60;31.38;;;;;;;4.92;100.00;101726.84;6173207;28;20055;-75
2021/03/26 02:40:29;;;;;;;63.70;31.55;;;;;;;4.87;100.00;101724.31;6172953;28;20057;-74
2021/03/26 02:43:41;;;;;;;63.47;30.38;;;;;;;4.87;100.00;101724.31;6172869;28;20400;-74
2021/03/26 02:46:51;;;;;;;66.85;31.33;;;;;;;4.84;100.00;101726.94;6175033;28;20054;-75
2021/03/26 02:49:56;;;;;;;61.13;30.58;;;;;;;4.84;100.00;101721.75;6177261;28;20487;-75
2021/03/26 02:53:03;;;;;;;63.53;30.17;;;;;;;4.76;100.00;101726.19;6177149;28;20050;-75
2021/03/26 02:56:09;;;;;;;57.97;29.95;;;;;;;4.73;100.00;101727.13;6177283;28;20058;-75
2021/03/26 02:59:16;;;;;;;62.78;31.35;;;;;;;4.73;100.00;101732.31;6177252;28;20051;-75
2021/03/26 03:02:20;;;;;;;57.13;29.20;;;;;;;4.73;100.00;101732.31;6176828;28;20051;-74
2021/03/26 03:05:27;;;;;;;63.58;30.85;;;;;;;4.69;100.00;101727.16;6177174;28;20046;-75
2021/03/26 03:08:32;;;;;;;58.97;31.00;;;;;;;4.72;100.00;101735.78;6176667;28;20070;-75
2021/03/26 03:11:56;;;;;;;56.45;29.10;;;;;;;4.77;100.00;101739.22;6176813;28;20422;-75
2021/03/26 03:15:01;;;;;;;60.30;30.52;;;;;;;4.76;100.00;101727.03;6176729;28;20415;-74
2021/03/26 03:18:09;;;;;;;60.50;30.80;;;;;;;4.82;100.00;101721.78;6176903;28;20046;-74
2021/03/26 03:21:16;;;;;;;71.10;32.92;;;;;;;4.86;100.00;101720.00;6176440;28;20089;-74
2021/03/26 03:24:21;;;;;;;67.47;32.05;;;;;;;4.91;100.00;101715.59;6176743;28;20102;-74
2021/03/26 03:27:38;;;;;;;64.10;31.75;;;;;;;4.89;100.00;101721.69;6176458;28;20054;-75
2021/03/26 03:30:51;;;;;;;70.10;33.28;;;;;;;4.86;100.00;101709.59;6176440;28;20055;-75
2021/03/26 03:34:00;;;;;;;72.13;35.17;;;;;;;4.83;100.00;101710.47;6176738;28;20051;-75
2021/03/26 03:37:12;;;;;;;63.58;31.25;;;;;;;4.81;100.00;101711.38;6176382;28;20051;-75
2021/03/26 03:40:24;;;;;;;68.13;33.88;;;;;;;4.78;100.00;101711.44;6176215;28;20053;-74
2021/03/26 03:43:32;;;;;;;66.72;33.33;;;;;;;4.74;100.00;101710.59;6176030;28;20055;-74
2021/03/26 03:46:39;;;;;;;67.82;33.08;;;;;;;4.74;100.00;101705.38;6176151;28;20054;-75
2021/03/26 03:49:50;;;;;;;67.18;34.63;;;;;;;4.73;100.00;101695.88;6176088;28;20499;-75
2021/03/26 03:52:58;;;;;;;70.65;34.40;;;;;;;4.73;100.00;101695.00;6175780;28;20400;-74
2021/03/26 03:56:04;;;;;;;68.63;33.97;;;;;;;4.72;100.00;101699.31;6175874;28;20061;-74
2021/03/26 03:59:11;;;;;;;69.38;36.50;;;;;;;4.68;100.00;101695.06;6174975;28;20097;-74
2021/03/26 04:02:18;;;;;;;74.32;34.90;;;;;;;4.67;100.00;101700.28;6175477;28;20427;-74
2021/03/26 04:05:26;;;;;;;70.47;34.58;;;;;;;4.66;100.00;101693.34;6175812;28;20054;-74
2021/03/26 04:08:31;;;;;;;78.03;37.75;;;;;;;4.63;100.00;101688.19;6175518;28;20134;-74
2021/03/26 04:11:38;;;;;;;77.97;35.97;;;;;;;4.67;100.00;101689.88;6175463;28;20057;-74
2021/03/26 04:14:44;;;;;;;79.25;36.85;;;;;;;4.62;100.00;101684.72;6175645;28;20054;-74
2021/03/26 04:17:52;;;;;;;75.88;36.72;;;;;;;4.66;100.00;101690.75;6175580;28;20073;-74
2021/03/26 04:20:57;;;;;;;81.70;40.25;;;;;;;4.69;100.00;101691.56;6175046;28;20051;-74
2021/03/26 04:24:01;;;;;;;80.82;36.90;;;;;;;4.77;100.00;101691.47;6175409;28;20051;-74
2021/03/26 04:27:09;;;;;;;79.18;37.55;;;;;;;4.89;100.00;101685.22;6175190;28;20058;-75
2021/03/26 04:30:16;;;;;;;70.90;37.05;;;;;;;4.83;100.00;101694.00;6175183;28;20523;-74
2021/03/26 04:33:17;;;;;;;80.05;38.10;;;;;;;4.85;100.00;101689.59;6174778;28;20126;-74
2021/03/26 04:36:24;;;;;;;80.80;40.95;;;;;;;4.82;100.00;101693.13;6174990;28;20274;-74
2021/03/26 04:39:32;;;;;;;79.43;36.88;;;;;;;4.75;100.00;101688.88;6174758;28;20042;-74
2021/03/26 04:42:41;;;;;;;74.82;36.30;;;;;;;4.70;100.00;101688.09;6174523;28;20503;-74
2021/03/26 04:45:48;;;;;;;73.65;36.17;;;;;;;4.67;100.00;101689.88;6174819;28;20504;-74
2021/03/26 04:48:58;;;;;;;75.40;36.22;;;;;;;4.70;100.00;101682.03;6174762;28;20047;-73
2021/03/26 04:52:01;;;;;;;;;;;;;;;4.64;100.00;101688.19;6174756;28;20062;-73
2021/03/26 04:55:09;;;;;;;80.28;37.83;;;;;;;4.73;100.00;101682.00;6175041;28;19922;-73
2021/03/26 04:58:14;;;;;;;85.95;39.88;;;;;;;4.71;100.00;101676.78;6174541;28;20050;-73
2021/03/26 05:01:18;;;;;;;78.18;38.20;;;;;;;4.73;100.00;101679.38;6174129;28;20058;-73
2021/03/26 05:04:23;;;;;;;74.38;37.92;;;;;;;4.70;100.00;101680.28;6174594;28;20105;-74
2021/03/26 05:07:29;;;;;;;91.72;42.80;;;;;;;4.68;100.00;101679.44;6174179;28;20058;-73
2021/03/26 05:10:34;;;;;;;86.32;40.45;;;;;;;4.74;100.00;101673.28;6173945;28;20512;-73
2021/03/26 05:13:41;;;;;;;82.93;39.85;;;;;;;4.81;100.00;101672.31;6174054;28;20054;-73
2021/03/26 05:16:52;;;;;;;82.38;40.67;;;;;;;4.77;100.00;101678.47;6174361;28;20061;-74
2021/03/26 05:19:58;;;;;;;86.68;40.20;;;;;;;4.78;100.00;101677.56;6173842;28;20056;-73
2021/03/26 05:23:02;;;;;;;87.32;39.65;;;;;;;4.75;100.00;101675.84;6173976;28;20058;-73
2021/03/26 05:26:04;;;;;;;92.00;41.22;;;;;;;4.81;100.00;101674.91;6173989;28;20047;-72
2021/03/26 05:29:05;;;;;;;91.47;42.13;;;;;;;4.78;100.00;101677.56;6174028;28;20612;-73
2021/03/26 05:32:12;;;;;;;77.57;38.13;;;;;;;4.79;100.00;101687.09;6173558;28;20047;-73
2021/03/26 05:35:21;;;;;;;87.47;39.80;;;;;;;4.79;100.00;101676.69;6174063;28;20686;-73
2021/03/26 05:38:26;;;;;;;;;;;;;;;4.78;100.00;101677.56;6174363;28;20047;-73
2021/03/26 05:41:40;;;;;;;94.30;40.20;;;;;;;4.82;100.00;101676.66;6173368;28;20286;-73
2021/03/26 05:44:55;;;;;;;84.57;38.80;;;;;;;4.89;100.00;101674.81;6173853;28;20047;-73
2021/03/26 05:48:15;;;;;;;81.00;39.72;;;;;;;4.88;100.00;101675.69;6173637;28;20057;-73
2021/03/26 05:51:37;;;;;;;88.15;39.38;;;;;;;4.90;100.00;101682.59;6173545;28;20050;-74
2021/03/26 05:54:52;;;;;;;84.72;39.53;;;;;;;5.00;100.00;101680.72;6173696;28;20105;-73
2021/03/26 05:58:01;;;;;;;91.50;40.97;;;;;;;4.97;100.00;101673.81;6173798;28;20098;-73
2021/03/26 06:01:15;;;;;;;88.70;40.72;;;;;;;5.03;100.00;101676.31;6173336;28;20090;-74
2021/03/26 06:04:33;;;;;;;82.00;39.70;;;;;;;5.13;100.00;101673.56;6173438;28;20459;-73
2021/03/26 06:07:54;;;;;;;90.10;40.53;;;;;;;5.16;100.00;101678.72;6173378;28;20047;-74
2021/03/26 06:11:16;;;;;;;86.85;40.88;;;;;;;5.18;100.00;101669.13;6173277;28;20105;-73
2021/03/26 06:14:36;;;;;;;89.53;39.88;;;;;;;5.15;100.00;101670.06;6173593;28;20062;-74
2021/03/26 06:18:18;;;;;;;80.13;39.30;;;;;;;5.18;100.00;101676.94;6173304;28;20054;-74
2021/03/26 06:21:33;;;;;;;94.25;40.58;;;;;;;5.34;100.00;101675.81;6174411;28;20062;-73
2021/03/26 06:25:16;;;;;;;78.80;38.80;;;;;;;5.33;100.00;101674.09;6182705;28;20058;-74
2021/03/26 06:28:29;;;;;;;88.32;38.75;;;;;;;5.44;100.00;101673.91;6177755;28;20058;-73
2021/03/26 06:32:08;;;;;;;85.53;39.72;;;;;;;5.47;100.00;101672.13;6177546;28;20407;-73
2021/03/26 06:35:35;;;;;;;90.05;39.58;;;;;;;5.54;100.00;101671.13;6146019;28;20066;-73
2021/03/26 06:38:55;;;;;;;91.53;41.33;;;;;;;5.66;100.00;101672.66;6177533;28;20061;-74
2021/03/26 06:42:29;;;;;;;84.20;39.00;;;;;;;5.76;100.00;101673.34;6260873;23;20046;-78
2021/03/26 06:45:49;;;;;;;83.63;39.13;;;;;;;5.90;100.00;101675.69;6242166;28;20049;-78
2021/03/26 06:49:03;;;;;;;88.82;41.35;;;;;;;5.95;100.00;101672.16;6243399;28;20046;-78
2021/03/26 06:52:15;;;;;;;83.20;39.58;;;;;;;6.04;100.00;101673.69;6225599;28;20064;-76
2021/03/26 06:55:58;;;;;;;89.80;40.60;;;;;;;6.08;100.00;101668.38;6226021;28;20046;-76
2021/03/26 06:59:19;;;;;;;84.05;38.95;;;;;;;6.19;100.00;101673.41;6225517;28;20050;-81
2021/03/26 07:02:47;;;;;;;81.05;37.65;;;;;;;6.34;100.00;101672.22;6225512;28;20056;-80
2021/03/26 07:06:03;;;;;;;81.72;38.63;;;;;;;6.40;100.00;101664.25;6225894;28;20049;-78
2021/03/26 07:09:19;;;;;;;80.15;37.13;;;;;;;6.49;100.00;101663.22;6225373;28;20057;-79
2021/03/26 07:12:48;;;;;;;83.13;38.85;;;;;;;6.56;100.00;101660.44;6225296;28;20084;-79
2021/03/26 07:15:58;;;;;;;85.20;38.42;;;;;;;6.58;100.00;101663.84;6238961;28;20049;-79
2021/03/26 07:19:22;;;;;;;85.55;38.38;;;;;;;6.65;100.00;101664.59;6247715;28;20124;-79
2021/03/26 07:22:46;;;;;;;76.55;38.25;;;;;;;6.85;100.00;101665.00;6248258;28;20050;-79
2021/03/26 07:25:59;;;;;;;77.53;38.00;;;;;;;7.00;100.00;101668.16;6246260;28;20060;-80
2021/03/26 07:29:28;;;;;;;76.78;36.90;;;;;;;7.05;100.00;101663.69;6247346;28;20112;-79
2021/03/26 07:32:38;;;;;;;75.72;36.45;;;;;;;7.12;100.00;101673.06;6241682;28;20056;-79
2021/03/26 07:36:09;;;;;;;;;;;;;;;7.27;100.00;101669.25;6249498;28;20057;-79
2021/03/26 07:39:29;;;;;;;73.13;35.88;;;;;;;7.33;100.00;101661.25;6249301;28;19924;-79
2021/03/26 07:42:54;;;;;;;72.63;36.58;;;;;;;7.42;100.00;101670.63;6247903;28;20045;-79
2021/03/26 07:46:21;;;;;;;74.20;35.45;;;;;;;7.62;100.00;101670.94;6247182;28;20049;-79
2021/03/26 07:49:50;;;;;;;79.20;37.97;;;;;;;7.74;100.00;101662.78;6249029;28;20049;-79
2021/03/26 07:53:02;;;;;;;71.55;35.60;;;;;;;7.97;100.00;101671.78;6230963;28;20054;-80
2021/03/26 07:56:14;;;;;;;64.50;33.72;;;;;;;8.10;99.26;101665.28;6249029;28;20045;-79
2021/03/26 07:59:47;;;;;;;69.05;34.80;;;;;;;8.14;99.24;101669.53;6246349;28;20049;-78
2021/03/26 08:03:02;;;;;;;69.38;35.15;;;;;;;8.20;99.11;101674.59;6246835;28;20568;-79
2021/03/26 08:06:16;;;;;;;61.15;33.35;;;;;;;8.27;98.61;101660.44;6246695;28;20053;-80
2021/03/26 08:09:45;;;;;;;72.88;35.30;;;;;;;8.45;97.32;101660.81;6247532;28;20052;-81
2021/03/26 08:13:02;;;;;;;62.50;33.72;;;;;;;8.47;97.88;101656.41;6245463;28;20045;-80
2021/03/26 08:16:19;;;;;;;61.53;33.17;;;;;;;8.57;97.50;101655.22;6248113;28;20053;-79
2021/03/26 08:19:27;;;;;;;64.57;33.55;;;;;;;8.85;94.62;101656.06;6247903;28;20457;-76
2021/03/26 08:22:41;;;;;;;62.42;30.40;;;;;;;8.94;93.08;101648.81;6238821;28;20046;-79
2021/03/26 08:25:44;;;;;;;58.08;30.80;;;;;;;8.95;93.18;101646.16;6248070;28;20050;-79
2021/03/26 08:28:57;;;;;;;56.47;31.40;;;;;;;9.08;93.24;101637.00;6247224;28;20037;-79
2021/03/26 08:32:08;;;;;;;58.03;31.25;;;;;;;9.11;93.27;101642.13;6240705;28;20502;-79
2021/03/26 08:35:29;;;;;;;59.20;30.75;;;;;;;9.38;90.82;101629.84;6247857;28;20524;-78
2021/03/26 08:38:45;;;;;;;58.20;31.83;;;;;;;9.31;91.14;101643.22;6224561;28;20509;-79
2021/03/26 08:41:54;;;;;;;61.42;30.95;;;;;;;9.38;89.82;101640.34;6245032;28;20052;-79
2021/03/26 08:44:58;;;;;;;50.60;28.85;;;;;;;9.54;89.92;101645.09;6246636;28;20045;-81
2021/03/26 08:48:12;;;;;;;54.97;30.55;;;;;;;9.75;86.55;101640.84;6247499;28;20111;-77
2021/03/26 08:51:45;;;;;;;56.83;30.45;;;;;;;9.84;85.83;101645.75;6247167;28;20045;-78
2021/03/26 08:55:02;;;;;;;54.75;29.90;;;;;;;9.90;86.71;101645.53;6247386;28;20049;-79
2021/03/26 08:58:19;;;;;;;55.65;28.88;;;;;;;9.93;85.39;101641.94;6225540;28;20400;-78
2021/03/26 09:01:36;;;;;;;56.95;30.45;;;;;;;10.13;85.25;101644.72;6225663;28;20087;-78
2021/03/26 09:04:54;;;;;;;50.78;29.25;;;;;;;10.15;83.64;101648.97;6247196;28;20049;-79
2021/03/26 09:08:05;;;;;;;53.20;29.63;;;;;;;10.20;83.60;101646.19;6245239;28;20392;-79
2021/03/26 09:11:34;;;;;;;54.55;28.27;;;;;;;10.28;83.04;101645.94;6245378;28;20056;-78
2021/03/26 09:14:46;;;;;;;;;;;;;;;10.48;82.33;101642.53;6247172;28;20053;-79
2021/03/26 09:17:53;;;;;;;55.28;30.00;;;;;;;10.66;82.24;101637.41;6247170;28;19928;-82
2021/03/26 09:21:01;;;;;;;48.28;28.67;;;;;;;10.77;80.65;101637.00;6246715;28;20042;-81
2021/03/26 09:24:31;;;;;;;53.83;28.85;;;;;;;10.79;81.44;101635.16;6246825;28;20532;-80
2021/03/26 09:27:38;;;;;;;48.45;27.40;;;;;;;10.78;79.58;101633.47;6246765;28;20060;-81
2021/03/26 09:30:45;;;;;;;52.72;29.55;;;;;;;10.96;77.47;101617.84;6246782;28;20049;-80
2021/03/26 09:33:55;;;;;;;54.33;27.83;;;;;;;11.03;76.78;101620.16;6246695;28;20414;-80
2021/03/26 09:37:12;;;;;;;44.00;25.98;;;;;;;11.04;75.83;101624.53;6246849;28;20049;-79
2021/03/26 09:40:37;;;;;;;45.35;25.08;;;;;;;11.09;75.16;101617.28;6246365;28;20608;-78
2021/03/26 09:43:48;;;;;;;43.63;24.92;;;;;;;11.21;73.29;101621.16;6246290;28;20410;-78
2021/03/26 09:46:53;;;;;;;44.88;25.45;;;;;;;11.16;72.94;101615.25;6246905;28;20054;-79
2021/03/26 09:50:01;;;;;;;43.17;23.38;;;;;;;11.17;74.41;101603.78;6246610;28;20544;-81
2021/03/26 09:53:10;;;;;;;40.65;23.25;;;;;;;11.21;71.09;101613.28;6246522;28;20067;-78
2021/03/26 09:56:31;;;;;;;47.90;23.83;;;;;;;11.28;72.87;101604.22;6247559;28;20057;-80
2021/03/26 09:59:44;;;;;;;44.88;23.80;;;;;;;11.40;72.21;101593.19;6250658;28;20042;-81
2021/03/26 10:02:59;;;;;;;45.65;22.00;;;;;;;11.62;70.99;101589.59;6248918;28;20053;-80
2021/03/26 10:06:05;;;;;;;40.65;21.75;;;;;;;11.61;68.41;101594.00;6251464;28;20046;-80
2021/03/26 10:09:22;;;;;;;42.05;21.67;;;;;;;11.78;68.84;101587.13;6251444;28;20048;-78
2021/03/26 10:12:26;;;;;;;45.35;20.23;;;;;;;11.86;69.49;101585.91;6250830;28;20045;-79
2021/03/26 10:15:31;;;;;;;51.38;21.75;;;;;;;11.78;69.23;101577.47;6251108;28;20108;-79
2021/03/26 10:18:40;;;;;;;43.30;22.05;;;;;;;11.54;70.01;101576.78;6251193;28;20057;-80
2021/03/26 10:21:48;;;;;;;34.90;21.13;;;;;;;11.60;68.89;101587.03;6250627;28;20056;-80
2021/03/26 10:24:55;;;;;;;34.30;20.02;;;;;;;11.71;67.90;101573.38;6251411;28;20049;-81
2021/03/26 10:28:08;;;;;;;35.50;19.23;;;;;;;11.74;66.01;101565.34;6250906;28;20509;-82
2021/03/26 10:31:12;;;;;;;37.15;20.63;;;;;;;11.82;66.36;101572.91;6250413;28;20115;-80
2021/03/26 10:34:16;;;;;;;34.65;18.77;;;;;;;11.74;66.94;101565.34;6250781;28;20057;-81
2021/03/26 10:37:28;;;;;;;34.42;19.88;;;;;;;12.00;65.57;101547.53;6232749;28;20046;-81
2021/03/26 10:40:35;;;;;;;37.92;18.77;;;;;;;12.31;66.14;101553.09;6223993;28;20053;-80
2021/03/26 10:43:46;;;;;;;29.40;16.90;;;;;;;12.46;63.83;101538.31;6225631;28;20050;-78
2021/03/26 10:46:51;;;;;;;28.67;16.08;;;;;;;12.68;63.39;101538.13;6225991;28;20499;-79
2021/03/26 10:49:56;;;;;;;30.23;15.77;;;;;;;12.72;62.25;101526.47;6226245;28;20052;-78
2021/03/26 10:53:06;;;;;;;28.75;18.15;;;;;;;13.01;62.36;101532.06;6225701;28;20407;-78
2021/03/26 10:56:11;;;;;;;;;;;;;;;13.07;61.08;101522.03;6226256;28;20046;-76
2021/03/26 10:59:20;;;;;;;28.05;15.88;;;;;;;13.04;61.27;101524.84;6225575;28;19926;-80
2021/03/26 11:02:29;;;;;;;;;;;;;;;12.92;60.86;101521.03;6225888;28;20104;-78
2021/03/26 11:05:42;;;;;;;33.70;17.73;;;;;;;12.89;61.14;101515.06;6225417;28;20425;-81
2021/03/26 11:08:52;;;;;;;30.50;16.90;;;;;;;12.81;60.81;101509.31;6232156;28;20486;-80
2021/03/26 11:11:57;;;;;;;;;;;;;;;13.07;59.74;101516.75;6250167;28;20049;-78
2021/03/26 11:15:05;;;;;;;33.58;14.77;;;;;;;13.32;59.31;101507.63;6250169;28;19928;-80
2021/03/26 11:18:17;;;;;;;23.90;15.27;;;;;;;12.98;59.21;101505.84;6249747;28;20053;-81
2021/03/26 11:21:21;;;;;;;27.10;15.10;;;;;;;12.68;61.97;101499.41;6249495;28;20050;-80
2021/03/26 11:24:24;;;;;;;27.83;15.07;;;;;;;12.91;61.28;101494.75;6249816;28;20061;-81
2021/03/26 11:27:32;;;;;;;29.13;15.27;;;;;;;13.14;58.91;101499.69;6249683;28;20052;-80
2021/03/26 11:30:43;;;;;;;27.10;15.13;;;;;;;13.46;60.44;101478.69;6249130;28;20041;-79
2021/03/26 11:33:54;;;;;;;28.67;15.85;;;;;;;13.92;57.79;101473.53;6249499;28;20457;-80
2021/03/26 11:37:11;;;;;;;24.15;15.18;;;;;;;13.51;57.59;101471.38;6249269;28;20057;-80
2021/03/26 11:40:18;;;;;;;23.40;14.88;;;;;;;13.62;60.60;101474.28;6249098;28;20053;-80
2021/03/26 11:43:21;;;;;;;28.80;16.38;;;;;;;14.02;58.47;101458.00;6249337;28;20114;-80
2021/03/26 11:46:26;;;;;;;29.60;16.98;;;;;;;14.20;57.38;101457.81;6249330;28;20045;-81
2021/03/26 11:49:30;;;;;;;26.50;16.77;;;;;;;14.69;54.23;101462.09;6249481;28;20041;-81
2021/03/26 11:52:40;;;;;;;27.25;16.05;;;;;;;14.85;54.42;101451.44;6247993;28;20533;-81
2021/03/26 11:55:49;;;;;;;28.98;16.23;;;;;;;14.99;57.17;101454.13;6248247;28;20076;-79
2021/03/26 11:59:03;;;;;;;29.35;17.35;;;;;;;15.14;53.01;101441.75;6248740;28;20049;-81
2021/03/26 12:02:28;;;;;;;28.83;18.00;;;;;;;14.91;51.82;101440.50;6248935;28;20049;-73
2021/03/26 12:05:41;;;;;;;27.48;17.20;;;;;;;14.40;52.58;101445.25;6248813;28;20060;-73
2021/03/26 12:08:52;;;;;;;25.00;15.65;;;;;;;14.74;55.18;101440.66;6248854;28;20061;-80
2021/03/26 12:12:07;;;;;;;25.73;16.00;;;;;;;15.26;51.57;101426.88;6248067;28;20088;-80
2021/03/26 12:15:13;;;;;;;29.00;17.23;;;;;;;15.02;52.39;101430.09;6248610;28;20053;-81
2021/03/26 12:18:22;;;;;;;23.02;14.73;;;;;;;15.52;54.71;101415.50;6247715;28;20103;-79
2021/03/26 12:21:41;;;;;;;22.88;14.20;;;;;;;15.62;51.80;101408.66;6248082;28;20053;-78
2021/03/26 12:24:48;;;;;;;26.00;14.35;;;;;;;15.92;50.03;101407.69;6248397;28;20067;-80
2021/03/26 12:27:52;;;;;;;20.20;12.25;;;;;;;16.02;47.66;101408.78;6248156;28;20085;-78
2021/03/26 12:30:57;;;;;;;23.38;13.68;;;;;;;15.97;47.63;101408.22;6247608;28;20045;-78
2021/03/26 12:34:03;;;;;;;21.67;13.48;;;;;;;15.97;48.77;101400.28;6248121;28;20053;-79
2021/03/26 12:37:07;;;;;;;22.60;13.00;;;;;;;15.64;48.27;101398.88;6247730;28;20445;-79
2021/03/26 12:40:29;;;;;;;20.70;12.02;;;;;;;15.64;47.76;101392.72;6264934;23;20025;-74
2021/03/26 12:43:46;;;;;;;21.75;12.43;;;;;;;15.43;50.04;101381.66;6222336;28;20120;-75
2021/03/26 12:47:00;;;;;;;20.83;11.93;;;;;;;15.85;47.14;101388.69;6202257;28;20054;-76
2021/03/26 12:50:09;;;;;;;16.40;10.65;;;;;;;16.02;48.58;101378.75;6211611;28;20077;-76
2021/03/26 12:53:14;;;;;;;26.08;12.43;;;;;;;16.19;47.00;101374.03;6222675;28;20077;-75
2021/03/26 12:56:21;;;;;;;27.42;11.02;;;;;;;16.54;47.50;101365.53;6223195;28;20050;-76
2021/03/26 12:59:26;;;;;;;23.65;12.63;;;;;;;16.72;44.46;101358.97;6222781;28;20050;-76
2021/03/26 13:02:31;;;;;;;16.63;10.75;;;;;;;16.34;44.44;101350.94;6222688;28;20057;-75
2021/03/26 13:05:33;;;;;;;19.85;10.27;;;;;;;16.20;47.22;101353.69;6222785;28;20050;-75
2021/03/26 13:08:38;;;;;;;26.83;10.50;;;;;;;16.64;47.28;101348.00;6222811;28;20100;-76
2021/03/26 13:11:44;;;;;;;21.52;11.20;;;;;;;16.79;44.50;101339.97;6222306;28;20498;-76
2021/03/26 13:14:50;;;;;;;19.67;10.45;;;;;;;16.79;42.42;101332.00;6222811;28;20065;-76
2021/03/26 13:18:01;;;;;;;19.65;11.43;;;;;;;16.81;42.40;101322.97;6222913;28;20052;-76
2021/03/26 13:21:13;;;;;;;20.30;12.07;;;;;;;16.68;43.81;101322.94;6222226;28;20046;-76
2021/03/26 13:24:23;;;;;;;15.45;9.60;;;;;;;16.94;42.68;101317.63;6222314;28;20046;-76
2021/03/26 13:27:36;;;;;;;;;;;;;;;17.41;40.99;101316.03;6223176;28;20506;-76
2021/03/26 13:30:44;;;;;;;18.25;10.60;;;;;;;16.86;42.58;101307.56;6222067;28;19928;-76
2021/03/26 13:33:50;;;;;;;17.08;9.10;;;;;;;17.05;44.77;101298.28;6222106;28;20053;-76
2021/03/26 13:37:01;;;;;;;18.27;10.35;;;;;;;17.22;41.70;101298.78;6210019;28;20621;-76
2021/03/26 13:40:08;;;;;;;14.23;9.65;;;;;;;17.37;42.26;101294.16;6197810;28;20058;-75
2021/03/26 13:43:16;;;;;;;14.00;8.75;;;;;;;17.64;40.24;101288.59;6197739;28;20419;-76
2021/03/26 13:46:27;;;;;;;18.05;8.98;;;;;;;17.45;42.18;101286.47;6197875;28;20422;-76
2021/03/26 13:49:29;;;;;;;12.50;8.13;;;;;;;17.58;41.71;101277.59;6215087;28;20041;-76
2021/03/26 13:52:37;;;;;;;18.40;9.25;;;;;;;17.67;41.34;101287.53;6221891;28;20045;-76
2021/03/26 13:55:40;;;;;;;15.75;9.43;;;;;;;17.55;40.45;101291.94;6222155;28;20511;-75
2021/03/26 13:58:47;;;;;;;12.60;8.60;;;;;;;17.47;41.42;101273.91;6221786;28;20073;-76
2021/03/26 14:01:52;;;;;;;18.23;9.13;;;;;;;17.72;39.69;101278.25;6221864;28;20062;-76
2021/03/26 14:05:15;;;;;;;12.80;8.13;;;;;;;17.29;41.30;101274.41;6221817;28;20514;-77
2021/03/26 14:08:24;;;;;;;14.82;8.13;;;;;;;17.37;40.36;101267.56;6217741;28;20050;-76
2021/03/26 14:11:30;;;;;;;14.35;8.02;;;;;;;17.62;40.83;101269.28;6213876;28;20046;-76
2021/03/26 14:14:43;;;;;;;13.73;7.30;;;;;;;17.74;40.08;101252.41;6221785;28;20058;-76
2021/03/26 14:17:47;;;;;;;12.00;7.15;;;;;;;17.60;39.76;101243.75;6222042;28;20045;-76
2021/03/26 14:20:52;;;;;;;14.82;7.15;;;;;;;17.63;40.00;101246.19;6221518;28;20046;-76
2021/03/26 14:24:02;;;;;;;14.95;7.38;;;;;;;17.37;40.57;101248.13;6221769;28;20057;-76
2021/03/26 14:27:12;;;;;;;11.80;7.38;;;;;;;17.53;40.69;101245.16;6221679;28;20085;-76
2021/03/26 14:30:19;;;;;;;12.32;7.32;;;;;;;17.55;41.09;101236.13;6221774;28;20053;-76